Terminal Aerodrome Forecast
Issued by NWS

Home | Current Version | Previous Version | Text Only | Print | Product List | Glossary On
Versions: 1 2 3 4 5 6 7 8 9 10 11 12 13 14 15 16 17 18 19 20 21 22 23 24 25
000
FTUS43 KAPX 061751 AAA
TAFAPN
TAF AMD
KAPN 061751Z 0618/0718 12010G18KT P6SM BKN028
      TEMPO 0618/0622 SCT028
     FM062200 16008G16KT P6SM OVC025
     FM070100 18007KT P6SM OVC020
     FM070400 22007KT P6SM BKN035
     FM070600 25009KT P6SM BKN035
     FM071400 24014G22KT P6SM BKN035=

USA.gov is the U.S. government's official web portal to all federal, state and local government web resources and services.